sensor_id;sensor_type;location;lat;lon;timestamp;temperature;humidity
46490;DHT22;32204;49.160;8.580;2022-09-09T00:01:23;17.70;99.90
46490;DHT22;32204;49.160;8.580;2022-09-09T00:09:48;17.90;99.90
46490;DHT22;32204;49.160;8.580;2022-09-09T00:12:22;17.90;99.90
46490;DHT22;32204;49.160;8.580;2022-09-09T00:14:56;18.00;99.90
46490;DHT22;32204;49.160;8.580;2022-09-09T00:17:35;18.00;93.10
46490;DHT22;32204;49.160;8.580;2022-09-09T00:23:28;17.60;99.90
46490;DHT22;32204;49.160;8.580;2022-09-09T00:28:40;17.70;99.90
46490;DHT22;32204;49.160;8.580;2022-09-09T00:31:13;17.80;99.90
46490;DHT22;32204;49.160;8.580;2022-09-09T00:33:40;17.90;99.90
46490;DHT22;32204;49.160;8.580;2022-09-09T00:36:13;18.00;99.90
46490;DHT22;32204;49.160;8.580;2022-09-09T00:38:47;17.90;56.60
46490;DHT22;32204;49.160;8.580;2022-09-09T00:41:21;18.00;69.30
46490;DHT22;32204;49.160;8.580;2022-09-09T00:44:13;18.00;32.70
46490;DHT22;32204;49.160;8.580;2022-09-09T00:49:37;17.90;70.70
46490;DHT22;32204;49.160;8.580;2022-09-09T00:55:16;17.90;23.60
46490;DHT22;32204;49.160;8.580;2022-09-09T00:57:44;17.90;34.70
46490;DHT22;32204;49.160;8.580;2022-09-09T01:03:06;17.90;1.00
46490;DHT22;32204;49.160;8.580;2022-09-09T01:05:39;18.00;1.00
46490;DHT22;32204;49.160;8.580;2022-09-09T01:08:19;18.00;1.00
46490;DHT22;32204;49.160;8.580;2022-09-09T01:10:54;18.10;1.00
46490;DHT22;32204;49.160;8.580;2022-09-09T01:15:56;17.90;27.90
46490;DHT22;32204;49.160;8.580;2022-09-09T01:18:27;17.90;22.60
46490;DHT22;32204;49.160;8.580;2022-09-09T01:21:02;17.90;5.00
46490;DHT22;32204;49.160;8.580;2022-09-09T01:26:38;17.90;34.50
46490;DHT22;32204;49.160;8.580;2022-09-09T01:29:16;17.90;52.00
46490;DHT22;32204;49.160;8.580;2022-09-09T01:31:53;17.90;48.10
46490;DHT22;32204;49.160;8.580;2022-09-09T01:34:20;17.90;48.00
46490;DHT22;32204;49.160;8.580;2022-09-09T01:39:33;17.80;92.70
46490;DHT22;32204;49.160;8.580;2022-09-09T01:42:00;17.80;99.90
46490;DHT22;32204;49.160;8.580;2022-09-09T01:44:27;17.80;99.90
46490;DHT22;32204;49.160;8.580;2022-09-09T01:46:53;17.80;95.90
46490;DHT22;32204;49.160;8.580;2022-09-09T01:49:19;17.80;99.80
46490;DHT22;32204;49.160;8.580;2022-09-09T01:51:48;17.80;92.90
46490;DHT22;32204;49.160;8.580;2022-09-09T01:54:15;17.80;88.60
46490;DHT22;32204;49.160;8.580;2022-09-09T01:57:08;17.80;64.90
46490;DHT22;32204;49.160;8.580;2022-09-09T02:02:23;17.80;47.60
46490;DHT22;32204;49.160;8.580;2022-09-09T02:04:57;17.90;36.50
46490;DHT22;32204;49.160;8.580;2022-09-09T02:07:42;17.90;19.70
46490;DHT22;32204;49.160;8.580;2022-09-09T02:10:30;17.80;52.20
46490;DHT22;32204;49.160;8.580;2022-09-09T02:13:10;17.70;99.90
46490;DHT22;32204;49.160;8.580;2022-09-09T02:15:52;17.70;99.90
46490;DHT22;32204;49.160;8.580;2022-09-09T02:18:24;17.70;99.90
46490;DHT22;32204;49.160;8.580;2022-09-09T02:20:52;17.60;99.90
46490;DHT22;32204;49.160;8.580;2022-09-09T02:23:19;17.50;99.90
46490;DHT22;32204;49.160;8.580;2022-09-09T02:25:46;17.30;99.90
46490;DHT22;32204;49.160;8.580;2022-09-09T02:28:13;17.20;99.90
46490;DHT22;32204;49.160;8.580;2022-09-09T02:30:40;17.20;99.90
46490;DHT22;32204;49.160;8.580;2022-09-09T02:33:07;17.20;99.90
46490;DHT22;32204;49.160;8.580;2022-09-09T02:35:36;17.30;99.90
46490;DHT22;32204;49.160;8.580;2022-09-09T02:38:07;17.30;99.90
46490;DHT22;32204;49.160;8.580;2022-09-09T02:40:33;17.30;99.90
46490;DHT22;32204;49.160;8.580;2022-09-09T02:42:59;17.30;99.90
46490;DHT22;32204;49.160;8.580;2022-09-09T02:45:30;17.40;99.90
46490;DHT22;32204;49.160;8.580;2022-09-09T02:48:06;17.40;99.90
46490;DHT22;32204;49.160;8.580;2022-09-09T02:50:41;17.40;99.90
46490;DHT22;32204;49.160;8.580;2022-09-09T02:55:41;17.30;99.90
46490;DHT22;32204;49.160;8.580;2022-09-09T02:58:13;17.30;99.90
46490;DHT22;32204;49.160;8.580;2022-09-09T03:00:44;17.30;99.90
46490;DHT22;32204;49.160;8.580;2022-09-09T03:03:10;17.20;99.90
46490;DHT22;32204;49.160;8.580;2022-09-09T03:05:36;17.20;99.90
46490;DHT22;32204;49.160;8.580;2022-09-09T03:08:03;17.10;99.90
46490;DHT22;32204;49.160;8.580;2022-09-09T03:10:29;17.20;99.90
46490;DHT22;32204;49.160;8.580;2022-09-09T03:12:55;17.30;99.90
46490;DHT22;32204;49.160;8.580;2022-09-09T03:15:21;17.50;99.90
46490;DHT22;32204;49.160;8.580;2022-09-09T03:17:46;17.60;99.90
46490;DHT22;32204;49.160;8.580;2022-09-09T03:20:12;17.60;99.90
46490;DHT22;32204;49.160;8.580;2022-09-09T03:22:38;17.60;99.90
46490;DHT22;32204;49.160;8.580;2022-09-09T03:25:04;17.60;99.90
46490;DHT22;32204;49.160;8.580;2022-09-09T03:27:31;17.70;99.90
46490;DHT22;32204;49.160;8.580;2022-09-09T03:29:57;17.70;99.90
46490;DHT22;32204;49.160;8.580;2022-09-09T03:32:22;17.70;99.90
46490;DHT22;32204;49.160;8.580;2022-09-09T03:34:50;17.60;99.90
46490;DHT22;32204;49.160;8.580;2022-09-09T03:37:16;17.50;99.90
46490;DHT22;32204;49.160;8.580;2022-09-09T03:39:43;17.40;99.90
46490;DHT22;32204;49.160;8.580;2022-09-09T03:42:09;17.30;99.90
46490;DHT22;32204;49.160;8.580;2022-09-09T03:44:35;17.40;99.90
46490;DHT22;32204;49.160;8.580;2022-09-09T03:47:00;17.40;99.90
46490;DHT22;32204;49.160;8.580;2022-09-09T03:49:26;17.40;99.90
46490;DHT22;32204;49.160;8.580;2022-09-09T03:51:55;17.50;99.90
46490;DHT22;32204;49.160;8.580;2022-09-09T03:54:24;17.40;99.90
46490;DHT22;32204;49.160;8.580;2022-09-09T03:56:50;17.40;99.90
46490;DHT22;32204;49.160;8.580;2022-09-09T03:59:16;17.50;99.90
46490;DHT22;32204;49.160;8.580;2022-09-09T04:01:41;17.50;99.90
46490;DHT22;32204;49.160;8.580;2022-09-09T04:04:07;17.60;99.90
46490;DHT22;32204;49.160;8.580;2022-09-09T04:06:34;17.60;99.90
46490;DHT22;32204;49.160;8.580;2022-09-09T04:09:00;17.50;99.90
46490;DHT22;32204;49.160;8.580;2022-09-09T04:11:30;17.50;99.90
46490;DHT22;32204;49.160;8.580;2022-09-09T04:13:56;17.40;99.90
46490;DHT22;32204;49.160;8.580;2022-09-09T04:16:21;17.50;99.90
46490;DHT22;32204;49.160;8.580;2022-09-09T04:18:47;17.50;99.90
46490;DHT22;32204;49.160;8.580;2022-09-09T04:21:14;17.50;99.90
46490;DHT22;32204;49.160;8.580;2022-09-09T04:23:41;17.50;99.90
46490;DHT22;32204;49.160;8.580;2022-09-09T04:26:07;17.30;99.90
46490;DHT22;32204;49.160;8.580;2022-09-09T04:28:34;17.30;99.90
46490;DHT22;32204;49.160;8.580;2022-09-09T04:31:14;17.30;99.90
46490;DHT22;32204;49.160;8.580;2022-09-09T04:33:40;17.30;99.90
46490;DHT22;32204;49.160;8.580;2022-09-09T04:36:06;17.20;99.90
46490;DHT22;32204;49.160;8.580;2022-09-09T04:38:32;17.30;99.90
46490;DHT22;32204;49.160;8.580;2022-09-09T04:40:57;17.30;99.90
46490;DHT22;32204;49.160;8.580;2022-09-09T04:43:24;17.50;99.90
46490;DHT22;32204;49.160;8.580;2022-09-09T04:45:51;17.50;99.90
46490;DHT22;32204;49.160;8.580;2022-09-09T04:48:18;17.40;99.90
46490;DHT22;32204;49.160;8.580;2022-09-09T04:50:44;17.30;99.90
46490;DHT22;32204;49.160;8.580;2022-09-09T04:53:18;17.30;99.90
46490;DHT22;32204;49.160;8.580;2022-09-09T04:55:44;17.40;99.90
46490;DHT22;32204;49.160;8.580;2022-09-09T04:58:10;17.40;99.90
46490;DHT22;32204;49.160;8.580;2022-09-09T05:00:37;17.40;99.90
46490;DHT22;32204;49.160;8.580;2022-09-09T05:03:04;17.40;99.90
46490;DHT22;32204;49.160;8.580;2022-09-09T05:05:34;17.40;99.90
46490;DHT22;32204;49.160;8.580;2022-09-09T05:08:07;17.40;99.90
46490;DHT22;32204;49.160;8.580;2022-09-09T05:10:37;17.40;99.90
46490;DHT22;32204;49.160;8.580;2022-09-09T05:13:07;17.40;79.00
46490;DHT22;32204;49.160;8.580;2022-09-09T05:15:33;17.40;92.20
46490;DHT22;32204;49.160;8.580;2022-09-09T05:17:59;17.40;93.40
46490;DHT22;32204;49.160;8.580;2022-09-09T05:20:26;17.50;86.60
46490;DHT22;32204;49.160;8.580;2022-09-09T05:22:53;17.50;88.50
46490;DHT22;32204;49.160;8.580;2022-09-09T05:25:20;17.60;39.50
46490;DHT22;32204;49.160;8.580;2022-09-09T05:27:46;17.70;29.20
46490;DHT22;32204;49.160;8.580;2022-09-09T05:30:12;18.10;1.00
46490;DHT22;32204;49.160;8.580;2022-09-09T05:32:38;18.70;1.00
46490;DHT22;32204;49.160;8.580;2022-09-09T05:35:04;19.10;99.90
46490;DHT22;32204;49.160;8.580;2022-09-09T05:37:31;18.90;99.90
46490;DHT22;32204;49.160;8.580;2022-09-09T05:39:57;18.90;99.90
46490;DHT22;32204;49.160;8.580;2022-09-09T05:42:23;18.80;99.90
46490;DHT22;32204;49.160;8.580;2022-09-09T05:44:49;18.60;1.00
46490;DHT22;32204;49.160;8.580;2022-09-09T05:47:16;19.30;99.90
46490;DHT22;32204;49.160;8.580;2022-09-09T05:49:42;19.90;99.40
46490;DHT22;32204;49.160;8.580;2022-09-09T05:52:08;19.60;99.90
46490;DHT22;32204;49.160;8.580;2022-09-09T05:54:34;20.40;1.00
46490;DHT22;32204;49.160;8.580;2022-09-09T05:57:00;20.50;99.90
46490;DHT22;32204;49.160;8.580;2022-09-09T05:59:25;19.80;1.00
46490;DHT22;32204;49.160;8.580;2022-09-09T06:01:51;19.40;99.90
46490;DHT22;32204;49.160;8.580;2022-09-09T06:04:17;19.10;99.90
46490;DHT22;32204;49.160;8.580;2022-09-09T06:06:43;18.80;99.90
46490;DHT22;32204;49.160;8.580;2022-09-09T06:09:09;18.50;1.00
46490;DHT22;32204;49.160;8.580;2022-09-09T06:11:37;18.70;1.00
46490;DHT22;32204;49.160;8.580;2022-09-09T06:14:03;18.70;99.90
46490;DHT22;32204;49.160;8.580;2022-09-09T06:16:30;19.00;1.00
46490;DHT22;32204;49.160;8.580;2022-09-09T06:18:57;21.40;99.90
46490;DHT22;32204;49.160;8.580;2022-09-09T06:21:31;23.70;99.90
46490;DHT22;32204;49.160;8.580;2022-09-09T06:23:58;25.00;99.90
46490;DHT22;32204;49.160;8.580;2022-09-09T06:26:30;24.80;99.90
46490;DHT22;32204;49.160;8.580;2022-09-09T06:28:56;23.40;99.90
46490;DHT22;32204;49.160;8.580;2022-09-09T06:31:25;22.00;99.90
46490;DHT22;32204;49.160;8.580;2022-09-09T06:33:52;21.20;1.00
46490;DHT22;32204;49.160;8.580;2022-09-09T06:36:26;20.30;99.90
46490;DHT22;32204;49.160;8.580;2022-09-09T06:38:53;19.80;99.90
46490;DHT22;32204;49.160;8.580;2022-09-09T06:41:20;19.50;1.00
46490;DHT22;32204;49.160;8.580;2022-09-09T06:43:46;19.40;12.90
46490;DHT22;32204;49.160;8.580;2022-09-09T06:46:17;19.50;46.50
46490;DHT22;32204;49.160;8.580;2022-09-09T06:48:44;19.80;1.00
46490;DHT22;32204;49.160;8.580;2022-09-09T06:53:40;19.70;99.90
46490;DHT22;32204;49.160;8.580;2022-09-09T06:58:54;19.40;1.00
46490;DHT22;32204;49.160;8.580;2022-09-09T07:01:29;19.50;52.00
46490;DHT22;32204;49.160;8.580;2022-09-09T07:03:56;19.30;93.80
46490;DHT22;32204;49.160;8.580;2022-09-09T07:08:51;19.30;99.90
46490;DHT22;32204;49.160;8.580;2022-09-09T07:11:17;19.40;1.00
46490;DHT22;32204;49.160;8.580;2022-09-09T07:13:43;19.60;79.70
46490;DHT22;32204;49.160;8.580;2022-09-09T07:16:14;19.50;1.00
46490;DHT22;32204;49.160;8.580;2022-09-09T07:18:40;19.70;1.00
46490;DHT22;32204;49.160;8.580;2022-09-09T07:21:08;19.90;1.00
46490;DHT22;32204;49.160;8.580;2022-09-09T07:23:34;19.90;1.00
46490;DHT22;32204;49.160;8.580;2022-09-09T07:26:08;19.90;99.90
46490;DHT22;32204;49.160;8.580;2022-09-09T07:28:33;19.90;99.90
46490;DHT22;32204;49.160;8.580;2022-09-09T07:31:01;20.00;1.00
46490;DHT22;32204;49.160;8.580;2022-09-09T07:33:29;20.20;99.90
46490;DHT22;32204;49.160;8.580;2022-09-09T07:36:26;20.50;99.90
46490;DHT22;32204;49.160;8.580;2022-09-09T07:38:56;20.50;1.00
46490;DHT22;32204;49.160;8.580;2022-09-09T07:41:25;20.40;99.90
46490;DHT22;32204;49.160;8.580;2022-09-09T07:43:51;20.20;99.90
46490;DHT22;32204;49.160;8.580;2022-09-09T07:46:20;20.20;1.00
46490;DHT22;32204;49.160;8.580;2022-09-09T07:48:48;20.00;99.90
46490;DHT22;32204;49.160;8.580;2022-09-09T07:51:19;20.00;1.00
46490;DHT22;32204;49.160;8.580;2022-09-09T07:53:47;20.00;1.00
46490;DHT22;32204;49.160;8.580;2022-09-09T07:56:17;20.00;1.00
46490;DHT22;32204;49.160;8.580;2022-09-09T07:58:45;20.00;1.00
46490;DHT22;32204;49.160;8.580;2022-09-09T08:01:28;19.90;1.00
46490;DHT22;32204;49.160;8.580;2022-09-09T08:04:01;20.00;1.00
46490;DHT22;32204;49.160;8.580;2022-09-09T08:06:28;21.40;99.90
46490;DHT22;32204;49.160;8.580;2022-09-09T08:08:54;23.50;1.00
46490;DHT22;32204;49.160;8.580;2022-09-09T08:11:24;23.20;99.90
46490;DHT22;32204;49.160;8.580;2022-09-09T08:13:51;23.20;99.90
46490;DHT22;32204;49.160;8.580;2022-09-09T08:16:31;22.80;1.00
46490;DHT22;32204;49.160;8.580;2022-09-09T08:18:57;22.10;20.80
46490;DHT22;32204;49.160;8.580;2022-09-09T08:21:25;21.70;1.00
46490;DHT22;32204;49.160;8.580;2022-09-09T08:23:56;21.70;99.90
46490;DHT22;32204;49.160;8.580;2022-09-09T08:26:24;21.70;99.90
46490;DHT22;32204;49.160;8.580;2022-09-09T08:28:51;21.60;82.70
46490;DHT22;32204;49.160;8.580;2022-09-09T08:31:19;21.30;99.90
46490;DHT22;32204;49.160;8.580;2022-09-09T08:33:46;21.10;99.90
46490;DHT22;32204;49.160;8.580;2022-09-09T08:36:17;20.90;99.90
46490;DHT22;32204;49.160;8.580;2022-09-09T08:38:52;20.50;99.90
46490;DHT22;32204;49.160;8.580;2022-09-09T08:41:37;20.30;99.90
46490;DHT22;32204;49.160;8.580;2022-09-09T08:58:21;20.50;1.00
46490;DHT22;32204;49.160;8.580;2022-09-09T09:00:52;21.00;1.00
46490;DHT22;32204;49.160;8.580;2022-09-09T09:11:15;21.20;99.90
46490;DHT22;32204;49.160;8.580;2022-09-09T09:19:15;21.20;99.90
46490;DHT22;32204;49.160;8.580;2022-09-09T09:21:54;21.10;99.90
46490;DHT22;32204;49.160;8.580;2022-09-09T09:26:58;21.50;1.00
46490;DHT22;32204;49.160;8.580;2022-09-09T09:29:26;21.70;99.90
46490;DHT22;32204;49.160;8.580;2022-09-09T09:31:54;21.60;7.80
46490;DHT22;32204;49.160;8.580;2022-09-09T09:34:22;21.80;1.00
46490;DHT22;32204;49.160;8.580;2022-09-09T09:36:59;21.80;1.00
46490;DHT22;32204;49.160;8.580;2022-09-09T09:39:33;21.70;1.00
46490;DHT22;32204;49.160;8.580;2022-09-09T09:42:16;21.80;99.90
46490;DHT22;32204;49.160;8.580;2022-09-09T09:44:43;21.70;99.90
46490;DHT22;32204;49.160;8.580;2022-09-09T09:47:15;21.60;36.00
46490;DHT22;32204;49.160;8.580;2022-09-09T09:49:55;21.60;1.00
46490;DHT22;32204;49.160;8.580;2022-09-09T09:52:26;21.50;1.00
46490;DHT22;32204;49.160;8.580;2022-09-09T09:54:54;21.60;1.00
46490;DHT22;32204;49.160;8.580;2022-09-09T09:57:26;21.60;1.00
46490;DHT22;32204;49.160;8.580;2022-09-09T10:00:14;21.70;99.90
46490;DHT22;32204;49.160;8.580;2022-09-09T10:02:41;21.80;99.90
46490;DHT22;32204;49.160;8.580;2022-09-09T10:07:41;21.20;99.90
46490;DHT22;32204;49.160;8.580;2022-09-09T10:10:16;21.00;99.90
46490;DHT22;32204;49.160;8.580;2022-09-09T10:13:09;20.90;99.90
46490;DHT22;32204;49.160;8.580;2022-09-09T10:27:15;21.80;99.90
46490;DHT22;32204;49.160;8.580;2022-09-09T10:32:52;21.80;99.90
46490;DHT22;32204;49.160;8.580;2022-09-09T10:35:33;22.00;99.90
46490;DHT22;32204;49.160;8.580;2022-09-09T10:38:08;21.90;99.90
46490;DHT22;32204;49.160;8.580;2022-09-09T10:40:58;21.90;99.90
46490;DHT22;32204;49.160;8.580;2022-09-09T10:49:28;22.10;99.90
46490;DHT22;32204;49.160;8.580;2022-09-09T10:52:19;22.20;77.10
46490;DHT22;32204;49.160;8.580;2022-09-09T10:55:26;22.00;99.90
46490;DHT22;32204;49.160;8.580;2022-09-09T10:57:58;21.80;99.90
46490;DHT22;32204;49.160;8.580;2022-09-09T11:00:42;22.00;99.90
46490;DHT22;32204;49.160;8.580;2022-09-09T11:03:26;22.10;99.90
46490;DHT22;32204;49.160;8.580;2022-09-09T11:06:03;22.40;25.80
46490;DHT22;32204;49.160;8.580;2022-09-09T11:08:33;22.50;6.20
46490;DHT22;32204;49.160;8.580;2022-09-09T11:11:08;22.60;1.00
46490;DHT22;32204;49.160;8.580;2022-09-09T11:13:51;22.90;8.00
46490;DHT22;32204;49.160;8.580;2022-09-09T11:19:33;23.00;18.50
46490;DHT22;32204;49.160;8.580;2022-09-09T11:22:04;23.30;1.00
46490;DHT22;32204;49.160;8.580;2022-09-09T11:25:32;23.20;99.90
46490;DHT22;32204;49.160;8.580;2022-09-09T11:30:28;23.20;1.00
46490;DHT22;32204;49.160;8.580;2022-09-09T11:33:30;23.00;1.00
46490;DHT22;32204;49.160;8.580;2022-09-09T11:44:40;23.60;99.90
46490;DHT22;32204;49.160;8.580;2022-09-09T11:47:35;23.60;99.90
46490;DHT22;32204;49.160;8.580;2022-09-09T11:52:43;23.50;99.90
46490;DHT22;32204;49.160;8.580;2022-09-09T11:55:25;23.50;99.90
46490;DHT22;32204;49.160;8.580;2022-09-09T12:00:42;23.70;99.90
46490;DHT22;32204;49.160;8.580;2022-09-09T12:05:56;23.90;99.90
46490;DHT22;32204;49.160;8.580;2022-09-09T12:08:26;23.90;99.90
46490;DHT22;32204;49.160;8.580;2022-09-09T12:10:58;24.20;99.90
46490;DHT22;32204;49.160;8.580;2022-09-09T12:13:26;24.00;99.90
46490;DHT22;32204;49.160;8.580;2022-09-09T12:15:54;24.00;99.90
46490;DHT22;32204;49.160;8.580;2022-09-09T12:18:24;23.80;99.90
46490;DHT22;32204;49.160;8.580;2022-09-09T12:24:05;23.90;99.90
46490;DHT22;32204;49.160;8.580;2022-09-09T12:27:12;23.80;99.90
46490;DHT22;32204;49.160;8.580;2022-09-09T12:29:59;23.60;99.90
46490;DHT22;32204;49.160;8.580;2022-09-09T12:32:28;23.40;99.90
46490;DHT22;32204;49.160;8.580;2022-09-09T12:35:13;23.40;99.90
46490;DHT22;32204;49.160;8.580;2022-09-09T12:37:54;23.20;99.90
46490;DHT22;32204;49.160;8.580;2022-09-09T12:40:27;23.00;99.90
46490;DHT22;32204;49.160;8.580;2022-09-09T12:42:54;22.70;99.90
46490;DHT22;32204;49.160;8.580;2022-09-09T12:45:25;21.80;90.20
46490;DHT22;32204;49.160;8.580;2022-09-09T12:48:06;21.30;1.00
46490;DHT22;32204;49.160;8.580;2022-09-09T12:50:36;20.50;99.90
46490;DHT22;32204;49.160;8.580;2022-09-09T12:53:33;20.30;99.90
46490;DHT22;32204;49.160;8.580;2022-09-09T12:56:08;20.10;10.70
46490;DHT22;32204;49.160;8.580;2022-09-09T12:58:37;20.20;99.90
46490;DHT22;32204;49.160;8.580;2022-09-09T13:01:04;20.20;99.90
46490;DHT22;32204;49.160;8.580;2022-09-09T13:03:32;20.30;1.00
46490;DHT22;32204;49.160;8.580;2022-09-09T13:06:21;20.20;99.90
46490;DHT22;32204;49.160;8.580;2022-09-09T13:08:45;20.00;1.00
46490;DHT22;32204;49.160;8.580;2022-09-09T13:14:19;20.00;1.00
46490;DHT22;32204;49.160;8.580;2022-09-09T13:16:55;20.00;1.00
46490;DHT22;32204;49.160;8.580;2022-09-09T13:19:22;19.80;1.00
46490;DHT22;32204;49.160;8.580;2022-09-09T13:21:47;19.70;1.00
46490;DHT22;32204;49.160;8.580;2022-09-09T13:24:30;19.40;1.00
46490;DHT22;32204;49.160;8.580;2022-09-09T13:27:19;19.20;1.00
46490;DHT22;32204;49.160;8.580;2022-09-09T13:29:53;19.00;1.00
46490;DHT22;32204;49.160;8.580;2022-09-09T13:32:21;19.10;99.90
46490;DHT22;32204;49.160;8.580;2022-09-09T13:35:01;19.20;99.90
46490;DHT22;32204;49.160;8.580;2022-09-09T13:37:38;19.40;99.90
46490;DHT22;32204;49.160;8.580;2022-09-09T13:40:05;19.70;99.90
46490;DHT22;32204;49.160;8.580;2022-09-09T13:42:33;19.90;99.90
46490;DHT22;32204;49.160;8.580;2022-09-09T13:45:03;20.10;1.00
46490;DHT22;32204;49.160;8.580;2022-09-09T13:47:34;20.50;1.00
46490;DHT22;32204;49.160;8.580;2022-09-09T13:52:49;20.60;1.00
46490;DHT22;32204;49.160;8.580;2022-09-09T13:55:17;20.80;97.30
46490;DHT22;32204;49.160;8.580;2022-09-09T13:57:51;21.00;28.00
46490;DHT22;32204;49.160;8.580;2022-09-09T14:00:17;21.20;1.00
46490;DHT22;32204;49.160;8.580;2022-09-09T14:02:43;21.30;99.90
46490;DHT22;32204;49.160;8.580;2022-09-09T14:05:09;21.70;86.40
46490;DHT22;32204;49.160;8.580;2022-09-09T14:07:38;21.90;99.90
46490;DHT22;32204;49.160;8.580;2022-09-09T14:10:05;22.00;1.00
46490;DHT22;32204;49.160;8.580;2022-09-09T14:12:31;22.00;1.00
46490;DHT22;32204;49.160;8.580;2022-09-09T14:14:57;21.70;45.70
46490;DHT22;32204;49.160;8.580;2022-09-09T14:17:22;21.60;99.90
46490;DHT22;32204;49.160;8.580;2022-09-09T14:19:48;21.40;42.20
46490;DHT22;32204;49.160;8.580;2022-09-09T14:22:14;21.40;99.90
46490;DHT22;32204;49.160;8.580;2022-09-09T14:24:40;21.30;1.00
46490;DHT22;32204;49.160;8.580;2022-09-09T14:27:06;21.30;1.00
46490;DHT22;32204;49.160;8.580;2022-09-09T14:29:31;21.20;45.90
46490;DHT22;32204;49.160;8.580;2022-09-09T14:32:01;21.30;99.90
46490;DHT22;32204;49.160;8.580;2022-09-09T14:34:26;21.40;99.90
46490;DHT22;32204;49.160;8.580;2022-09-09T14:36:52;21.50;1.00
46490;DHT22;32204;49.160;8.580;2022-09-09T14:39:18;21.50;99.90
46490;DHT22;32204;49.160;8.580;2022-09-09T14:41:43;21.60;99.90
46490;DHT22;32204;49.160;8.580;2022-09-09T14:44:09;21.60;99.90
46490;DHT22;32204;49.160;8.580;2022-09-09T14:46:35;21.70;1.00
46490;DHT22;32204;49.160;8.580;2022-09-09T14:49:01;21.60;99.90
46490;DHT22;32204;49.160;8.580;2022-09-09T14:51:27;21.50;37.20
46490;DHT22;32204;49.160;8.580;2022-09-09T14:53:58;21.40;1.00
46490;DHT22;32204;49.160;8.580;2022-09-09T14:56:27;21.50;1.00
46490;DHT22;32204;49.160;8.580;2022-09-09T14:58:54;21.90;1.00
46490;DHT22;32204;49.160;8.580;2022-09-09T15:01:21;22.20;99.90
46490;DHT22;32204;49.160;8.580;2022-09-09T15:03:58;22.50;1.00
46490;DHT22;32204;49.160;8.580;2022-09-09T15:06:25;22.20;1.00
46490;DHT22;32204;49.160;8.580;2022-09-09T15:08:53;22.00;99.90
46490;DHT22;32204;49.160;8.580;2022-09-09T15:11:20;21.70;99.90
46490;DHT22;32204;49.160;8.580;2022-09-09T15:13:46;21.60;99.90
46490;DHT22;32204;49.160;8.580;2022-09-09T15:16:17;21.60;99.90
46490;DHT22;32204;49.160;8.580;2022-09-09T15:18:45;21.30;99.90
46490;DHT22;32204;49.160;8.580;2022-09-09T15:21:14;21.00;32.20
46490;DHT22;32204;49.160;8.580;2022-09-09T15:23:41;20.80;99.90
46490;DHT22;32204;49.160;8.580;2022-09-09T15:26:07;20.50;99.90
46490;DHT22;32204;49.160;8.580;2022-09-09T15:28:34;20.50;99.90
46490;DHT22;32204;49.160;8.580;2022-09-09T15:31:15;20.40;99.90
46490;DHT22;32204;49.160;8.580;2022-09-09T15:33:48;20.40;99.90
46490;DHT22;32204;49.160;8.580;2022-09-09T15:36:15;20.90;1.00
46490;DHT22;32204;49.160;8.580;2022-09-09T15:38:41;21.30;99.90
46490;DHT22;32204;49.160;8.580;2022-09-09T15:41:19;21.60;99.90
46490;DHT22;32204;49.160;8.580;2022-09-09T15:43:48;21.90;17.40
46490;DHT22;32204;49.160;8.580;2022-09-09T15:48:52;22.30;99.90
46490;DHT22;32204;49.160;8.580;2022-09-09T15:51:18;22.10;59.60
46490;DHT22;32204;49.160;8.580;2022-09-09T15:53:44;21.90;99.90
46490;DHT22;32204;49.160;8.580;2022-09-09T15:56:10;21.70;1.00
46490;DHT22;32204;49.160;8.580;2022-09-09T15:58:36;22.00;1.00
46490;DHT22;32204;49.160;8.580;2022-09-09T16:01:06;22.40;1.00
46490;DHT22;32204;49.160;8.580;2022-09-09T16:03:42;22.70;1.00
46490;DHT22;32204;49.160;8.580;2022-09-09T16:06:10;22.60;31.50
46490;DHT22;32204;49.160;8.580;2022-09-09T16:08:38;22.50;99.90
46490;DHT22;32204;49.160;8.580;2022-09-09T16:11:06;22.20;99.90
46490;DHT22;32204;49.160;8.580;2022-09-09T16:13:36;21.90;99.90
46490;DHT22;32204;49.160;8.580;2022-09-09T16:16:03;21.60;99.90
46490;DHT22;32204;49.160;8.580;2022-09-09T16:18:44;21.30;99.90
46490;DHT22;32204;49.160;8.580;2022-09-09T16:21:16;21.10;11.20
46490;DHT22;32204;49.160;8.580;2022-09-09T16:23:43;21.10;99.90
46490;DHT22;32204;49.160;8.580;2022-09-09T16:26:14;20.90;99.90
46490;DHT22;32204;49.160;8.580;2022-09-09T16:28:40;20.80;1.00
46490;DHT22;32204;49.160;8.580;2022-09-09T16:31:07;20.80;30.40
46490;DHT22;32204;49.160;8.580;2022-09-09T16:33:34;20.90;3.40
46490;DHT22;32204;49.160;8.580;2022-09-09T16:36:08;20.90;84.70
46490;DHT22;32204;49.160;8.580;2022-09-09T16:38:36;20.70;4.10
46490;DHT22;32204;49.160;8.580;2022-09-09T16:41:03;20.50;99.90
46490;DHT22;32204;49.160;8.580;2022-09-09T16:43:31;20.30;99.90
46490;DHT22;32204;49.160;8.580;2022-09-09T16:45:57;20.10;99.90
46490;DHT22;32204;49.160;8.580;2022-09-09T16:48:26;20.10;99.90
46490;DHT22;32204;49.160;8.580;2022-09-09T16:50:52;20.10;99.90
46490;DHT22;32204;49.160;8.580;2022-09-09T16:53:18;20.10;1.00
46490;DHT22;32204;49.160;8.580;2022-09-09T16:55:43;20.00;99.90
46490;DHT22;32204;49.160;8.580;2022-09-09T16:58:12;19.60;1.00
46490;DHT22;32204;49.160;8.580;2022-09-09T17:00:38;19.30;1.00
46490;DHT22;32204;49.160;8.580;2022-09-09T17:03:04;18.80;1.00
46490;DHT22;32204;49.160;8.580;2022-09-09T17:05:39;18.60;1.00
46490;DHT22;32204;49.160;8.580;2022-09-09T17:08:05;18.60;1.00
46490;DHT22;32204;49.160;8.580;2022-09-09T17:10:30;18.60;1.00
46490;DHT22;32204;49.160;8.580;2022-09-09T17:12:57;18.50;1.00
46490;DHT22;32204;49.160;8.580;2022-09-09T17:15:23;18.70;70.10
46490;DHT22;32204;49.160;8.580;2022-09-09T17:17:49;18.80;30.60
46490;DHT22;32204;49.160;8.580;2022-09-09T17:20:18;18.80;27.90
46490;DHT22;32204;49.160;8.580;2022-09-09T17:22:44;18.80;1.00
46490;DHT22;32204;49.160;8.580;2022-09-09T17:25:10;18.60;1.00
46490;DHT22;32204;49.160;8.580;2022-09-09T17:27:36;18.60;1.00
46490;DHT22;32204;49.160;8.580;2022-09-09T17:30:03;18.70;1.00
46490;DHT22;32204;49.160;8.580;2022-09-09T17:32:29;18.70;21.30
46490;DHT22;32204;49.160;8.580;2022-09-09T17:34:55;18.70;43.90
46490;DHT22;32204;49.160;8.580;2022-09-09T17:37:21;18.70;25.30
46490;DHT22;32204;49.160;8.580;2022-09-09T17:39:47;18.70;42.70
46490;DHT22;32204;49.160;8.580;2022-09-09T17:42:12;18.70;46.20
46490;DHT22;32204;49.160;8.580;2022-09-09T17:44:39;18.70;44.10
46490;DHT22;32204;49.160;8.580;2022-09-09T17:47:07;18.70;47.10
46490;DHT22;32204;49.160;8.580;2022-09-09T17:49:33;18.60;31.80
46490;DHT22;32204;49.160;8.580;2022-09-09T17:52:04;18.60;67.30
46490;DHT22;32204;49.160;8.580;2022-09-09T17:54:31;18.40;27.70
46490;DHT22;32204;49.160;8.580;2022-09-09T17:56:57;18.60;75.50
46490;DHT22;32204;49.160;8.580;2022-09-09T17:59:24;18.60;45.30
46490;DHT22;32204;49.160;8.580;2022-09-09T18:01:50;18.50;26.60
46490;DHT22;32204;49.160;8.580;2022-09-09T18:04:18;18.50;86.70